Time;durP1;ratioP1;P1;durP2;ratioP2;P2;SDS_P1;SDS_P2;PMS_P1;PMS_P2;Temp;Humidity;BMP_temperature;BMP_pressure;BME280_temperature;BME280_humidity;BME280_pressure;Samples;Min_cycle;Max_cycle;Signal;HPM_P1;HPM_P2
2023/05/24 00:00:28;;;;;;;;;;;7.40;99.90;;;;;;5074715;28;19925;-76
2023/05/24 00:02:54;;;;;;;;;;;7.40;99.90;;;;;;5040183;28;19932;-76
2023/05/24 00:05:19;;;;;;;;;;;7.40;99.90;;;;;;5056245;28;19931;-76
2023/05/24 00:07:45;;;;;;;;;;;7.40;99.90;;;;;;5040897;28;19956;-77
2023/05/24 00:10:11;;;;;;;;;;;7.40;99.90;;;;;;5036363;28;20388;-76
2023/05/24 00:12:36;;;;;;;;;;;7.40;99.90;;;;;;5035167;28;19924;-76
2023/05/24 00:15:02;;;;;;;;;;;7.40;99.90;;;;;;5087792;28;19995;-76
2023/05/24 00:17:29;;;;;;;;;;;7.40;99.90;;;;;;5076852;28;19924;-76
2023/05/24 00:19:54;;;;;;;;;;;7.40;99.90;;;;;;5060794;28;19925;-76
2023/05/24 00:22:20;;;;;;;;;;;7.40;99.90;;;;;;5042317;28;19955;-76
2023/05/24 00:24:46;;;;;;;;;;;7.40;99.90;;;;;;5044053;28;19932;-76
2023/05/24 00:27:12;;;;;;;;;;;7.50;99.90;;;;;;5075746;28;19925;-76
2023/05/24 00:29:38;;;;;;;;;;;7.50;99.90;;;;;;5040118;28;19932;-76
2023/05/24 00:32:04;;;;;;;;;;;7.60;99.90;;;;;;5086736;28;19925;-76
2023/05/24 00:34:29;;;;;;;;;;;7.60;99.90;;;;;;5082030;28;19988;-76
2023/05/24 00:36:56;;;;;;;;;;;7.70;99.90;;;;;;5076855;28;19928;-76
2023/05/24 00:39:22;;;;;;;;;;;7.60;99.90;;;;;;5042212;28;19928;-76
2023/05/24 00:41:48;;;;;;;;;;;7.60;99.90;;;;;;5077428;28;19971;-77
2023/05/24 00:44:13;;;;;;;;;;;7.60;99.90;;;;;;5042284;28;20000;-77
2023/05/24 00:46:40;;;;;;;;;;;7.70;99.90;;;;;;5093679;28;19924;-76
2023/05/24 00:49:05;;;;;;;;;;;7.70;99.90;;;;;;5059069;28;19929;-76
2023/05/24 00:51:32;;;;;;;;;;;7.70;99.90;;;;;;5059449;28;19994;-77
2023/05/24 00:53:58;;;;;;;;;;;7.70;99.90;;;;;;5076643;28;19924;-76
2023/05/24 00:56:25;;;;;;;;;;;7.80;99.90;;;;;;5042129;28;19974;-76
2023/05/24 00:58:53;;;;;;;;;;;7.80;99.90;;;;;;5076759;28;19929;-76
2023/05/24 01:01:19;;;;;;;;;;;7.80;99.90;;;;;;5070096;28;19967;-76
2023/05/24 01:03:45;;;;;;;;;;;7.80;99.90;;;;;;5079177;28;19974;-76
2023/05/24 01:06:11;;;;;;;;;;;7.90;99.90;;;;;;5061997;28;19931;-76
2023/05/24 01:08:37;;;;;;;;;;;8.00;99.90;;;;;;5062504;28;19932;-76
2023/05/24 01:11:03;;;;;;;;;;;8.10;99.90;;;;;;5079515;28;19925;-76
2023/05/24 01:13:52;;;;;;;;;;;8.10;99.90;;;;;;5061810;28;19924;-76
2023/05/24 01:16:36;;;;;;;;;;;8.20;99.90;;;;;;5049652;28;20020;-76
2023/05/24 01:19:10;;;;;;;;;;;8.20;99.90;;;;;;5062899;28;19940;-77
2023/05/24 01:21:47;;;;;;;;;;;8.20;99.90;;;;;;5073537;28;20311;-77
2023/05/24 01:24:16;;;;;;;;;;;8.20;99.90;;;;;;5079767;28;20423;-77
2023/05/24 01:27:00;;;;;;;;;;;8.20;99.90;;;;;;5076953;28;19994;-76
2023/05/24 01:29:28;;;;;;;;;;;8.20;99.90;;;;;;5062800;28;19940;-77
2023/05/24 01:31:53;;;;;;;;;;;8.10;99.90;;;;;;5060987;28;19939;-77
2023/05/24 01:34:19;;;;;;;;;;;8.10;99.90;;;;;;5078715;28;19947;-77
2023/05/24 01:36:44;;;;;;;;;;;8.10;99.90;;;;;;5079299;28;19924;-76
2023/05/24 01:39:10;;;;;;;;;;;8.00;99.90;;;;;;5066483;28;19928;-76
2023/05/24 01:41:46;;;;;;;;;;;7.90;99.90;;;;;;5071031;28;19924;-76
2023/05/24 01:44:24;;;;;;;;;;;7.90;99.90;;;;;;5077529;28;19994;-76
2023/05/24 01:46:54;;;;;;;;;;;7.90;99.90;;;;;;5078751;28;19928;-76
2023/05/24 01:49:30;;;;;;;;;;;7.80;99.90;;;;;;5061586;28;20352;-76
2023/05/24 01:51:55;;;;;;;;;;;7.80;99.90;;;;;;5060988;28;19928;-76
2023/05/24 01:54:22;;;;;;;;;;;7.80;99.90;;;;;;5112985;28;19931;-76
2023/05/24 01:56:50;;;;;;;;;;;7.80;99.90;;;;;;5088466;28;19979;-76
2023/05/24 01:59:16;;;;;;;;;;;7.80;99.90;;;;;;5081592;28;19964;-76
2023/05/24 02:01:42;;;;;;;;;;;7.80;99.90;;;;;;5060389;28;19937;-76
2023/05/24 02:04:08;;;;;;;;;;;7.80;99.90;;;;;;5061290;28;19925;-76
2023/05/24 02:06:33;;;;;;;;;;;7.70;99.90;;;;;;5078248;28;19924;-76
2023/05/24 02:08:59;;;;;;;;;;;7.70;99.90;;;;;;5044122;28;20058;-76
2023/05/24 02:11:24;;;;;;;;;;;7.70;99.90;;;;;;5046396;28;20029;-76
2023/05/24 02:13:50;;;;;;;;;;;7.60;99.90;;;;;;5090093;28;20425;-76
2023/05/24 02:16:16;;;;;;;;;;;7.60;99.90;;;;;;5041976;28;19929;-76
2023/05/24 02:18:45;;;;;;;;;;;7.60;99.90;;;;;;5076205;28;19946;-75
2023/05/24 02:21:11;;;;;;;;;;;7.60;99.90;;;;;;5061583;28;20414;-76
2023/05/24 02:23:37;;;;;;;;;;;7.50;99.90;;;;;;5060963;28;19925;-76
2023/05/24 02:26:02;;;;;;;;;;;7.50;99.90;;;;;;5069909;28;19987;-77
2023/05/24 02:28:31;;;;;;;;;;;7.50;99.90;;;;;;5099046;28;19924;-76
2023/05/24 02:30:56;;;;;;;;;;;7.50;99.90;;;;;;5075053;28;19925;-76
2023/05/24 02:33:24;;;;;;;;;;;7.50;99.90;;;;;;5089186;28;20452;-76
2023/05/24 02:35:50;;;;;;;;;;;7.50;99.90;;;;;;5069579;28;19932;-76
2023/05/24 02:38:15;;;;;;;;;;;7.50;99.90;;;;;;5062568;28;19928;-77
2023/05/24 02:40:41;;;;;;;;;;;7.50;99.90;;;;;;5080578;28;19931;-77
2023/05/24 02:43:08;;;;;;;;;;;7.40;99.90;;;;;;5097345;28;19924;-77
2023/05/24 02:45:35;;;;;;;;;;;7.40;99.90;;;;;;5098620;28;19928;-76
2023/05/24 02:48:01;;;;;;;;;;;7.40;99.90;;;;;;5096416;28;19974;-76
2023/05/24 02:50:26;;;;;;;;;;;7.40;99.90;;;;;;5081494;28;19924;-77
2023/05/24 02:52:52;;;;;;;;;;;7.40;99.90;;;;;;5086186;28;19931;-77
2023/05/24 02:55:17;;;;;;;;;;;7.40;99.90;;;;;;5077411;28;19924;-76
2023/05/24 02:57:43;;;;;;;;;;;7.30;99.90;;;;;;5080651;28;20399;-76
2023/05/24 03:00:10;;;;;;;;;;;7.30;99.90;;;;;;5082574;28;19983;-76
2023/05/24 03:02:39;;;;;;;;;;;7.30;99.90;;;;;;5097944;28;20409;-76
2023/05/24 03:05:08;;;;;;;;;;;7.30;99.90;;;;;;5079627;28;19928;-77
2023/05/24 03:07:34;;;;;;;;;;;7.30;99.90;;;;;;5100183;28;19931;-76
2023/05/24 03:09:59;;;;;;;;;;;7.30;99.90;;;;;;5072091;28;19924;-76
2023/05/24 03:12:25;;;;;;;;;;;7.20;99.90;;;;;;5066664;28;19978;-76
2023/05/24 03:14:50;;;;;;;;;;;7.20;99.90;;;;;;5083963;28;19928;-76
2023/05/24 03:17:16;;;;;;;;;;;7.20;99.90;;;;;;5083337;28;19953;-77
2023/05/24 03:19:41;;;;;;;;;;;7.20;99.90;;;;;;5084314;28;19984;-76
2023/05/24 03:22:07;;;;;;;;;;;7.20;99.90;;;;;;5083021;28;19935;-76
2023/05/24 03:24:33;;;;;;;;;;;7.20;99.90;;;;;;5101624;28;19997;-77
2023/05/24 03:26:58;;;;;;;;;;;7.20;99.90;;;;;;5099778;28;19927;-77
2023/05/24 03:29:24;;;;;;;;;;;7.10;99.90;;;;;;5100826;28;19977;-76
2023/05/24 03:31:49;;;;;;;;;;;7.10;99.90;;;;;;5065981;28;19924;-76
2023/05/24 03:34:15;;;;;;;;;;;7.10;99.90;;;;;;5082424;28;19962;-76
2023/05/24 03:36:41;;;;;;;;;;;7.10;99.90;;;;;;5067594;28;19946;-76
2023/05/24 03:39:06;;;;;;;;;;;7.10;99.90;;;;;;5066382;28;19924;-76
2023/05/24 03:41:32;;;;;;;;;;;7.10;99.90;;;;;;5070561;28;19982;-76
2023/05/24 03:43:58;;;;;;;;;;;7.10;99.90;;;;;;5082852;28;19924;-77
2023/05/24 03:46:24;;;;;;;;;;;7.10;99.90;;;;;;5069823;28;19966;-76
2023/05/24 03:48:49;;;;;;;;;;;7.10;99.90;;;;;;5099702;28;19924;-77
2023/05/24 03:51:15;;;;;;;;;;;7.10;99.90;;;;;;5069467;28;19973;-76
2023/05/24 03:53:41;;;;;;;;;;;7.10;99.90;;;;;;5104489;28;19928;-77
2023/05/24 03:56:06;;;;;;;;;;;7.20;99.90;;;;;;5087112;28;19924;-77
2023/05/24 03:58:32;;;;;;;;;;;7.20;99.90;;;;;;5101598;28;19924;-77
2023/05/24 04:00:58;;;;;;;;;;;7.20;99.90;;;;;;5109359;28;19931;-77
2023/05/24 04:03:24;;;;;;;;;;;7.20;99.90;;;;;;5087453;28;19934;-77
2023/05/24 04:05:50;;;;;;;;;;;7.20;99.90;;;;;;5078751;28;19931;-77
2023/05/24 04:08:16;;;;;;;;;;;7.30;99.90;;;;;;5131808;27;19931;-77
2023/05/24 04:10:42;;;;;;;;;;;7.30;99.90;;;;;;5086942;28;19924;-77
2023/05/24 04:13:07;;;;;;;;;;;7.30;99.90;;;;;;5069825;28;20002;-77
2023/05/24 04:15:33;;;;;;;;;;;7.30;99.90;;;;;;5101013;28;20425;-77
2023/05/24 04:17:59;;;;;;;;;;;7.30;99.90;;;;;;5082347;28;20046;-77
2023/05/24 04:20:26;;;;;;;;;;;7.40;99.90;;;;;;5066121;28;19931;-77
2023/05/24 04:22:52;;;;;;;;;;;7.40;99.90;;;;;;5103076;28;19923;-77
2023/05/24 04:25:18;;;;;;;;;;;7.40;99.90;;;;;;5073432;28;19983;-77
2023/05/24 04:27:43;;;;;;;;;;;7.40;99.90;;;;;;5120566;28;19924;-77
2023/05/24 04:30:09;;;;;;;;;;;7.40;99.90;;;;;;5070153;28;19945;-76
2023/05/24 04:32:35;;;;;;;;;;;7.50;99.90;;;;;;5068892;28;19931;-77
2023/05/24 04:35:01;;;;;;;;;;;7.50;99.90;;;;;;5102600;28;19927;-77
2023/05/24 04:37:28;;;;;;;;;;;7.60;99.90;;;;;;5087187;28;19923;-77
2023/05/24 04:39:54;;;;;;;;;;;7.60;99.90;;;;;;5102439;28;19924;-77
2023/05/24 04:42:20;;;;;;;;;;;7.70;99.90;;;;;;5086679;28;19924;-77
2023/05/24 04:44:45;;;;;;;;;;;7.70;99.90;;;;;;5086098;28;19928;-77
2023/05/24 04:47:11;;;;;;;;;;;7.80;99.90;;;;;;5103237;28;19929;-77
2023/05/24 04:49:37;;;;;;;;;;;7.80;99.90;;;;;;5072609;28;19967;-77
2023/05/24 04:52:03;;;;;;;;;;;7.90;99.90;;;;;;5105319;28;20358;-77
2023/05/24 04:54:29;;;;;;;;;;;7.90;99.90;;;;;;5087205;28;19923;-77
2023/05/24 04:56:54;;;;;;;;;;;8.00;99.90;;;;;;5066726;28;19924;-77
2023/05/24 04:59:20;;;;;;;;;;;8.00;99.90;;;;;;5110557;28;19924;-77
2023/05/24 05:01:46;;;;;;;;;;;8.10;99.90;;;;;;5081481;28;20020;-76
2023/05/24 05:04:11;;;;;;;;;;;8.20;99.90;;;;;;5107763;28;19924;-77
2023/05/24 05:06:39;;;;;;;;;;;8.20;99.90;;;;;;5103269;28;19923;-77
2023/05/24 05:09:09;;;;;;;;;;;8.30;99.90;;;;;;5085471;28;19991;-77
2023/05/24 05:11:38;;;;;;;;;;;8.40;99.90;;;;;;5120704;28;20015;-76
2023/05/24 05:14:03;;;;;;;;;;;8.60;99.90;;;;;;5070821;28;19927;-77
2023/05/24 05:16:29;;;;;;;;;;;8.60;99.90;;;;;;5086604;28;19998;-77
2023/05/24 05:18:54;;;;;;;;;;;8.80;99.90;;;;;;5085329;28;19930;-76
2023/05/24 05:21:20;;;;;;;;;;;8.90;99.90;;;;;;5102365;28;19923;-77
2023/05/24 05:23:46;;;;;;;;;;;9.00;99.90;;;;;;5086228;28;19954;-77
2023/05/24 05:26:11;;;;;;;;;;;9.10;99.90;;;;;;5102087;28;19951;-77
2023/05/24 05:28:37;;;;;;;;;;;9.10;99.90;;;;;;5086349;28;20394;-77
2023/05/24 05:31:02;;;;;;;;;;;9.20;99.90;;;;;;5101371;28;19924;-77
2023/05/24 05:33:30;;;;;;;;;;;9.30;99.90;;;;;;5085948;28;19924;-77
2023/05/24 05:35:55;;;;;;;;;;;9.40;99.90;;;;;;5084931;28;19935;-77
2023/05/24 05:38:21;;;;;;;;;;;9.40;99.90;;;;;;5085275;28;19924;-77
2023/05/24 05:40:47;;;;;;;;;;;9.40;99.90;;;;;;5085733;28;20060;-77
2023/05/24 05:43:12;;;;;;;;;;;9.50;99.90;;;;;;5101525;28;20094;-77
2023/05/24 05:45:38;;;;;;;;;;;9.60;99.90;;;;;;5086122;28;20216;-77
2023/05/24 05:48:04;;;;;;;;;;;9.70;99.90;;;;;;5082888;28;19955;-77
2023/05/24 05:50:29;;;;;;;;;;;9.80;99.90;;;;;;5073068;28;19927;-77
2023/05/24 05:52:56;;;;;;;;;;;9.90;99.90;;;;;;5084350;28;19927;-77
2023/05/24 05:55:22;;;;;;;;;;;10.00;99.90;;;;;;5085029;28;19935;-78
2023/05/24 05:57:48;;;;;;;;;;;10.10;99.90;;;;;;5085345;28;19924;-78
2023/05/24 06:00:14;;;;;;;;;;;10.20;99.90;;;;;;5061075;28;20004;-78
2023/05/24 06:02:39;;;;;;;;;;;10.40;99.90;;;;;;5081354;28;20326;-78
2023/05/24 06:05:05;;;;;;;;;;;10.50;99.90;;;;;;5067209;28;20543;-78
2023/05/24 06:07:31;;;;;;;;;;;10.60;99.90;;;;;;5085585;28;19930;-78
2023/05/24 06:09:56;;;;;;;;;;;10.70;99.90;;;;;;5084067;28;19928;-78
2023/05/24 06:12:22;;;;;;;;;;;10.80;99.90;;;;;;5084779;28;19931;-78
2023/05/24 06:14:49;;;;;;;;;;;11.00;99.90;;;;;;5101148;28;19924;-77
2023/05/24 06:17:15;;;;;;;;;;;11.20;99.90;;;;;;5068167;28;20370;-78
2023/05/24 06:19:42;;;;;;;;;;;11.30;99.90;;;;;;5102538;28;19924;-78
2023/05/24 06:22:08;;;;;;;;;;;11.30;99.90;;;;;;5100710;28;20453;-77
2023/05/24 06:24:34;;;;;;;;;;;11.30;99.90;;;;;;5102125;28;19930;-78
2023/05/24 06:26:59;;;;;;;;;;;11.40;99.90;;;;;;5069810;28;19924;-79
2023/05/24 06:29:25;;;;;;;;;;;11.40;99.90;;;;;;5101491;28;19938;-78
2023/05/24 06:31:51;;;;;;;;;;;11.50;99.90;;;;;;5066940;28;19927;-78
2023/05/24 06:34:17;;;;;;;;;;;11.70;99.90;;;;;;5080406;28;19924;-78
2023/05/24 06:36:46;;;;;;;;;;;11.70;99.90;;;;;;5121213;27;19949;-77
2023/05/24 06:39:11;;;;;;;;;;;11.90;99.90;;;;;;5071033;28;19935;-78
2023/05/24 06:41:37;;;;;;;;;;;11.90;99.90;;;;;;5100041;28;19927;-77
2023/05/24 06:44:03;;;;;;;;;;;12.00;99.90;;;;;;5083658;28;19979;-77
2023/05/24 06:46:29;;;;;;;;;;;12.00;99.90;;;;;;5053402;28;19931;-78
2023/05/24 06:48:54;;;;;;;;;;;12.00;99.90;;;;;;5083826;28;20023;-77
2023/05/24 06:51:20;;;;;;;;;;;12.10;99.90;;;;;;5083669;28;19969;-78
2023/05/24 06:53:46;;;;;;;;;;;12.30;99.90;;;;;;5087942;28;19989;-77
2023/05/24 06:56:11;;;;;;;;;;;12.50;99.90;;;;;;5067140;28;20420;-77
2023/05/24 06:58:37;;;;;;;;;;;12.60;99.90;;;;;;5085169;28;19924;-78
2023/05/24 07:01:03;;;;;;;;;;;12.70;99.90;;;;;;5073268;28;19975;-77
2023/05/24 07:03:29;;;;;;;;;;;12.80;99.90;;;;;;5099701;28;19955;-77
2023/05/24 07:05:55;;;;;;;;;;;12.80;99.90;;;;;;5060302;28;19924;-77
2023/05/24 07:08:21;;;;;;;;;;;13.00;99.90;;;;;;5089627;28;19931;-77
2023/05/24 07:10:46;;;;;;;;;;;13.30;99.90;;;;;;5084500;28;20390;-78
2023/05/24 07:13:12;;;;;;;;;;;13.90;99.90;;;;;;5066529;28;19987;-77
2023/05/24 07:15:41;;;;;;;;;;;14.50;99.90;;;;;;5049663;28;19983;-77
2023/05/24 07:18:07;;;;;;;;;;;15.20;99.90;;;;;;5096310;28;19924;-77
2023/05/24 07:20:32;;;;;;;;;;;15.70;99.90;;;;;;5111876;28;20022;-76
2023/05/24 07:22:59;;;;;;;;;;;16.00;99.90;;;;;;5079678;28;19924;-75
2023/05/24 07:25:24;;;;;;;;;;;16.10;99.90;;;;;;5097089;28;20005;-76
2023/05/24 07:27:50;;;;;;;;;;;16.30;99.90;;;;;;5104959;28;19924;-76
2023/05/24 07:30:15;;;;;;;;;;;16.80;99.90;;;;;;5104267;28;19951;-76
2023/05/24 07:32:41;;;;;;;;;;;16.80;99.90;;;;;;5105041;28;19931;-76
2023/05/24 07:35:07;;;;;;;;;;;16.90;99.90;;;;;;5121000;28;19924;-76
2023/05/24 07:37:33;;;;;;;;;;;17.30;99.90;;;;;;5105437;28;19980;-77
2023/05/24 07:39:58;;;;;;;;;;;17.70;99.90;;;;;;5087049;28;19924;-76
2023/05/24 07:42:24;;;;;;;;;;;17.80;99.90;;;;;;5093767;28;19924;-76
2023/05/24 07:44:50;;;;;;;;;;;17.30;98.00;;;;;;5100968;28;19963;-76
2023/05/24 07:47:15;;;;;;;;;;;16.80;99.90;;;;;;5095418;28;19928;-76
2023/05/24 07:49:41;;;;;;;;;;;16.50;99.90;;;;;;5099952;28;19969;-76
2023/05/24 07:52:07;;;;;;;;;;;16.00;99.90;;;;;;5103247;28;19928;-76
2023/05/24 07:54:32;;;;;;;;;;;15.60;99.90;;;;;;5092305;28;19924;-77
2023/05/24 07:56:58;;;;;;;;;;;15.50;99.90;;;;;;5101825;28;19945;-78
2023/05/24 07:59:24;;;;;;;;;;;15.50;99.90;;;;;;5087590;28;19924;-77
2023/05/24 08:01:49;;;;;;;;;;;15.50;99.90;;;;;;5089117;28;19983;-78
2023/05/24 08:04:15;;;;;;;;;;;15.40;99.90;;;;;;5103856;28;20080;-77
2023/05/24 08:06:41;;;;;;;;;;;15.10;99.90;;;;;;5104919;28;19935;-77
2023/05/24 08:09:08;;;;;;;;;;;15.00;99.90;;;;;;5086571;28;20371;-78
2023/05/24 08:11:33;;;;;;;;;;;14.70;99.90;;;;;;5104725;28;19923;-79
2023/05/24 08:13:59;;;;;;;;;;;14.40;99.90;;;;;;5069531;28;19978;-78
2023/05/24 08:16:25;;;;;;;;;;;14.30;99.90;;;;;;5087338;28;20399;-79
2023/05/24 08:18:51;;;;;;;;;;;14.40;99.90;;;;;;5103972;28;20382;-80
2023/05/24 08:21:16;;;;;;;;;;;14.90;99.90;;;;;;5087712;28;19924;-79
2023/05/24 08:23:42;;;;;;;;;;;15.20;99.90;;;;;;5104900;28;19935;-79
2023/05/24 08:26:07;;;;;;;;;;;15.10;99.90;;;;;;5103645;28;19928;-77
2023/05/24 08:28:34;;;;;;;;;;;15.00;99.90;;;;;;5075637;28;20308;-78
2023/05/24 08:30:59;;;;;;;;;;;14.90;99.90;;;;;;5084923;28;19928;-78
2023/05/24 08:33:25;;;;;;;;;;;15.10;99.90;;;;;;5082695;28;19923;-78
2023/05/24 08:35:50;;;;;;;;;;;15.40;99.90;;;;;;5073073;28;19976;-79
2023/05/24 08:38:16;;;;;;;;;;;15.80;99.90;;;;;;5085043;28;19931;-78
2023/05/24 08:40:42;;;;;;;;;;;15.90;99.90;;;;;;5087179;28;19927;-78
2023/05/24 08:43:11;;;;;;;;;;;16.00;99.90;;;;;;5085640;28;19953;-78
2023/05/24 08:45:37;;;;;;;;;;;16.30;99.90;;;;;;5088113;28;19936;-79
2023/05/24 08:48:06;;;;;;;;;;;16.50;99.90;;;;;;5102242;28;19927;-78
2023/05/24 08:50:33;;;;;;;;;;;16.80;99.70;;;;;;5103581;28;19931;-79
2023/05/24 08:52:58;;;;;;;;;;;17.20;99.80;;;;;;5088764;28;19928;-80
2023/05/24 08:55:24;;;;;;;;;;;17.60;96.40;;;;;;5085989;28;19931;-79
2023/05/24 08:57:50;;;;;;;;;;;17.70;98.50;;;;;;5075058;28;19928;-79
2023/05/24 09:00:16;;;;;;;;;;;17.30;93.40;;;;;;5096561;28;19956;-78
2023/05/24 09:02:42;;;;;;;;;;;17.20;96.20;;;;;;5090317;28;19924;-80
2023/05/24 09:05:13;;;;;;;;;;;17.40;93.20;;;;;;5063370;28;20378;-77
2023/05/24 09:07:39;;;;;;;;;;;17.60;92.60;;;;;;5083154;28;19935;-78
2023/05/24 09:10:06;;;;;;;;;;;17.90;94.30;;;;;;5133171;27;19923;-79
2023/05/24 09:12:32;;;;;;;;;;;18.00;91.30;;;;;;5082608;28;19969;-76
2023/05/24 09:14:58;;;;;;;;;;;18.10;90.50;;;;;;5087067;28;19974;-78
2023/05/24 09:17:24;;;;;;;;;;;18.10;91.60;;;;;;5080847;28;19924;-77
2023/05/24 09:19:50;;;;;;;;;;;18.40;86.00;;;;;;5100200;28;19925;-78
2023/05/24 09:22:22;;;;;;;;;;;18.60;82.00;;;;;;5099667;28;19932;-77
2023/05/24 09:24:48;;;;;;;;;;;18.80;81.30;;;;;;5100061;28;20310;-78
2023/05/24 09:27:15;;;;;;;;;;;19.00;81.40;;;;;;5098625;28;19928;-79
2023/05/24 09:29:41;;;;;;;;;;;19.10;80.00;;;;;;5099312;28;19931;-78
2023/05/24 09:32:07;;;;;;;;;;;19.20;81.60;;;;;;5068151;28;19924;-79
2023/05/24 09:34:39;;;;;;;;;;;19.00;71.60;;;;;;5094155;28;20368;-78
2023/05/24 09:37:06;;;;;;;;;;;18.70;74.90;;;;;;5099739;28;20008;-78
2023/05/24 09:39:32;;;;;;;;;;;18.50;76.90;;;;;;5098233;28;19924;-79
2023/05/24 09:41:58;;;;;;;;;;;18.60;81.90;;;;;;5099520;28;19924;-79
2023/05/24 09:44:25;;;;;;;;;;;18.10;74.80;;;;;;5064761;28;19945;-78
2023/05/24 09:46:51;;;;;;;;;;;17.70;76.50;;;;;;5067946;28;19977;-78
2023/05/24 09:49:16;;;;;;;;;;;17.40;81.40;;;;;;5081702;28;20451;-78
2023/05/24 09:51:42;;;;;;;;;;;17.10;76.90;;;;;;5081040;28;19993;-78
2023/05/24 09:54:08;;;;;;;;;;;16.80;80.70;;;;;;5099395;28;19924;-78
2023/05/24 09:56:34;;;;;;;;;;;16.70;79.70;;;;;;5079569;28;19928;-78
2023/05/24 09:59:09;;;;;;;;;;;16.50;82.00;;;;;;5103218;28;19947;-78
2023/05/24 10:01:35;;;;;;;;;;;16.40;81.40;;;;;;5064900;28;20399;-78
2023/05/24 10:04:01;;;;;;;;;;;16.90;87.60;;;;;;5074577;28;19951;-78
2023/05/24 10:06:33;;;;;;;;;;;17.40;86.80;;;;;;5091360;28;19924;-78
2023/05/24 10:08:59;;;;;;;;;;;17.60;81.80;;;;;;5080685;28;19935;-78
2023/05/24 10:11:25;;;;;;;;;;;17.70;82.20;;;;;;5099105;28;20020;-77
2023/05/24 10:13:51;;;;;;;;;;;17.50;84.10;;;;;;5083254;28;19925;-78
2023/05/24 10:16:17;;;;;;;;;;;17.30;84.90;;;;;;5098869;28;20393;-78
2023/05/24 10:18:42;;;;;;;;;;;17.30;80.70;;;;;;5080916;28;19924;-78
2023/05/24 10:21:09;;;;;;;;;;;17.10;82.60;;;;;;5081309;28;20341;-77
2023/05/24 10:23:36;;;;;;;;;;;17.20;82.80;;;;;;5081623;28;19935;-78
2023/05/24 10:26:05;;;;;;;;;;;17.40;86.40;;;;;;5080410;28;19924;-78
2023/05/24 10:28:31;;;;;;;;;;;17.70;81.60;;;;;;5081789;28;19945;-79
2023/05/24 10:30:56;;;;;;;;;;;17.70;77.50;;;;;;5079976;28;20452;-78
2023/05/24 10:33:23;;;;;;;;;;;17.80;85.40;;;;;;5097809;28;19924;-77
2023/05/24 10:35:49;;;;;;;;;;;18.20;81.30;;;;;;5080239;28;19993;-79
2023/05/24 10:38:15;;;;;;;;;;;18.40;79.10;;;;;;5097676;28;19924;-78
2023/05/24 10:40:41;;;;;;;;;;;18.30;77.10;;;;;;5081475;28;19926;-78
2023/05/24 10:43:07;;;;;;;;;;;18.10;75.60;;;;;;5080107;28;19931;-78
2023/05/24 10:45:35;;;;;;;;;;;18.30;83.40;;;;;;5081514;28;19924;-77
2023/05/24 10:48:07;;;;;;;;;;;18.40;78.20;;;;;;5079714;28;19950;-77
2023/05/24 10:50:32;;;;;;;;;;;18.20;78.10;;;;;;5098583;28;19924;-77
2023/05/24 10:53:30;;;;;;;;;;;18.20;83.40;;;;;;5063765;28;20004;-77
2023/05/24 10:56:00;;;;;;;;;;;18.30;82.80;;;;;;5026322;28;20390;-77
2023/05/24 10:58:27;;;;;;;;;;;18.40;81.30;;;;;;5067537;28;20426;-78
2023/05/24 11:00:52;;;;;;;;;;;18.10;81.40;;;;;;5078688;28;19924;-78
2023/05/24 11:03:23;;;;;;;;;;;17.80;77.60;;;;;;5066671;28;19924;-78
2023/05/24 11:05:48;;;;;;;;;;;17.60;80.60;;;;;;5097545;28;19989;-77
2023/05/24 11:08:19;;;;;;;;;;;17.50;77.10;;;;;;5080553;28;19924;-78
2023/05/24 11:10:46;;;;;;;;;;;17.90;82.80;;;;;;5097898;28;20398;-77
2023/05/24 11:13:12;;;;;;;;;;;18.10;79.90;;;;;;5079692;28;19924;-78
2023/05/24 11:15:38;;;;;;;;;;;18.10;81.20;;;;;;5098062;28;19967;-77
2023/05/24 11:18:13;;;;;;;;;;;17.90;81.40;;;;;;5079667;28;19928;-77
2023/05/24 11:20:40;;;;;;;;;;;17.50;80.60;;;;;;5080611;28;19928;-77
2023/05/24 11:23:08;;;;;;;;;;;17.20;80.30;;;;;;5096986;28;19950;-77
2023/05/24 11:25:36;;;;;;;;;;;17.00;84.70;;;;;;5080208;28;19935;-77
2023/05/24 11:28:02;;;;;;;;;;;16.90;78.70;;;;;;5080906;28;20024;-77
2023/05/24 11:30:27;;;;;;;;;;;17.10;83.40;;;;;;5079104;28;19956;-77
2023/05/24 11:32:53;;;;;;;;;;;17.30;83.10;;;;;;5066573;28;19928;-77
2023/05/24 11:35:21;;;;;;;;;;;17.40;81.10;;;;;;5079353;28;20019;-77
2023/05/24 11:37:47;;;;;;;;;;;17.30;80.20;;;;;;5080264;28;19970;-78
2023/05/24 11:40:15;;;;;;;;;;;17.10;77.30;;;;;;5097074;28;19928;-77
2023/05/24 11:42:40;;;;;;;;;;;17.00;81.30;;;;;;5080220;28;19967;-77
2023/05/24 11:45:08;;;;;;;;;;;16.80;82.30;;;;;;5066701;28;19935;-78
2023/05/24 11:47:37;;;;;;;;;;;16.70;80.90;;;;;;5096227;28;20406;-78
2023/05/24 11:50:02;;;;;;;;;;;16.50;78.60;;;;;;5083315;28;20011;-78
2023/05/24 11:52:28;;;;;;;;;;;16.50;82.10;;;;;;5079170;28;19924;-77
2023/05/24 11:54:54;;;;;;;;;;;16.40;79.70;;;;;;5095495;28;19924;-77
2023/05/24 11:57:25;;;;;;;;;;;16.40;80.20;;;;;;5067059;28;19931;-78
2023/05/24 11:59:52;;;;;;;;;;;16.50;82.00;;;;;;5096791;28;19925;-77
2023/05/24 12:02:18;;;;;;;;;;;16.40;82.70;;;;;;5080075;28;19977;-77
2023/05/24 12:04:44;;;;;;;;;;;16.30;84.20;;;;;;5079068;28;19931;-78
2023/05/24 12:07:11;;;;;;;;;;;16.20;84.60;;;;;;5092932;28;19928;-77
2023/05/24 12:09:37;;;;;;;;;;;16.20;85.40;;;;;;5069834;28;19932;-78
2023/05/24 12:12:02;;;;;;;;;;;16.20;87.00;;;;;;5099277;28;19953;-77
2023/05/24 12:14:32;;;;;;;;;;;16.30;83.40;;;;;;5100199;28;19988;-78
2023/05/24 12:16:59;;;;;;;;;;;16.20;86.80;;;;;;5083689;28;19928;-78
2023/05/24 12:19:28;;;;;;;;;;;16.30;85.60;;;;;;5084263;28;19932;-78
2023/05/24 12:21:55;;;;;;;;;;;16.20;84.30;;;;;;5082814;28;19930;-77
2023/05/24 12:24:21;;;;;;;;;;;16.20;85.70;;;;;;5084188;28;19997;-78
2023/05/24 12:26:47;;;;;;;;;;;16.10;87.00;;;;;;5082603;28;19946;-78
2023/05/24 12:29:13;;;;;;;;;;;16.00;88.50;;;;;;5100342;28;20458;-78
2023/05/24 12:31:43;;;;;;;;;;;16.00;90.40;;;;;;5099834;28;19989;-77
2023/05/24 12:34:15;;;;;;;;;;;15.90;90.10;;;;;;5082774;28;19931;-78
2023/05/24 12:36:45;;;;;;;;;;;15.90;90.90;;;;;;5086524;28;19924;-78
2023/05/24 12:39:17;;;;;;;;;;;15.90;92.10;;;;;;5086687;28;19995;-78
2023/05/24 12:41:43;;;;;;;;;;;16.00;91.90;;;;;;5099541;28;19946;-78
2023/05/24 12:44:10;;;;;;;;;;;16.00;92.00;;;;;;5099318;28;19954;-78
2023/05/24 12:46:36;;;;;;;;;;;16.00;91.10;;;;;;5083074;28;19928;-78
2023/05/24 12:49:03;;;;;;;;;;;16.00;92.60;;;;;;5101477;28;19932;-77
2023/05/24 12:51:29;;;;;;;;;;;15.90;91.10;;;;;;5084834;28;20011;-78
2023/05/24 12:53:55;;;;;;;;;;;15.80;92.30;;;;;;5100621;28;19925;-78
2023/05/24 12:56:23;;;;;;;;;;;15.60;92.40;;;;;;5068360;28;19931;-79
2023/05/24 12:58:49;;;;;;;;;;;15.40;92.20;;;;;;5117838;28;19990;-77
2023/05/24 13:01:15;;;;;;;;;;;15.40;93.50;;;;;;5097284;28;20386;-78
2023/05/24 13:03:40;;;;;;;;;;;15.30;94.30;;;;;;5085035;28;20019;-77
2023/05/24 13:06:06;;;;;;;;;;;15.30;94.40;;;;;;5083616;28;19998;-77
2023/05/24 13:08:32;;;;;;;;;;;15.20;94.30;;;;;;5099981;27;19928;-78
2023/05/24 13:10:58;;;;;;;;;;;15.10;93.90;;;;;;5084079;28;19928;-77
2023/05/24 13:13:23;;;;;;;;;;;15.10;95.00;;;;;;5098349;28;20350;-77
2023/05/24 13:15:49;;;;;;;;;;;15.00;95.50;;;;;;5083305;28;19946;-78
2023/05/24 13:18:15;;;;;;;;;;;15.00;95.30;;;;;;5098636;28;19965;-78
2023/05/24 13:20:40;;;;;;;;;;;15.00;95.50;;;;;;5066140;28;19989;-78
2023/05/24 13:23:06;;;;;;;;;;;15.00;94.80;;;;;;5081198;28;19990;-77
2023/05/24 13:25:32;;;;;;;;;;;15.00;94.00;;;;;;5066527;28;20354;-78
2023/05/24 13:27:58;;;;;;;;;;;15.00;94.10;;;;;;5087578;28;19946;-77
2023/05/24 13:30:27;;;;;;;;;;;15.00;93.80;;;;;;5098171;28;19984;-78
2023/05/24 13:32:57;;;;;;;;;;;15.10;94.10;;;;;;5082546;28;19924;-78
2023/05/24 13:35:23;;;;;;;;;;;15.10;94.10;;;;;;5098313;28;19979;-77
2023/05/24 13:37:49;;;;;;;;;;;15.10;94.60;;;;;;5098728;28;19946;-77
2023/05/24 13:40:15;;;;;;;;;;;15.20;94.90;;;;;;5069356;28;19924;-77
2023/05/24 13:42:41;;;;;;;;;;;15.20;94.30;;;;;;5099093;28;20310;-77
2023/05/24 13:45:07;;;;;;;;;;;15.20;94.60;;;;;;5099660;28;19924;-77
2023/05/24 13:47:32;;;;;;;;;;;15.20;94.10;;;;;;5098333;28;19935;-77
2023/05/24 13:49:58;;;;;;;;;;;15.30;96.00;;;;;;5099601;28;19997;-77
2023/05/24 13:52:25;;;;;;;;;;;15.40;96.20;;;;;;5081300;28;19923;-78
2023/05/24 13:54:51;;;;;;;;;;;15.40;96.20;;;;;;5082495;28;20016;-77
2023/05/24 13:57:16;;;;;;;;;;;15.40;96.50;;;;;;5098448;28;20386;-78
2023/05/24 13:59:42;;;;;;;;;;;15.30;96.70;;;;;;5069042;28;19931;-77
2023/05/24 14:02:08;;;;;;;;;;;15.30;96.80;;;;;;5078737;28;19934;-77
2023/05/24 14:04:33;;;;;;;;;;;15.40;96.70;;;;;;5088562;28;20344;-77
2023/05/24 14:06:59;;;;;;;;;;;15.40;96.20;;;;;;5068345;28;19924;-77
2023/05/24 14:09:25;;;;;;;;;;;15.50;95.80;;;;;;5088523;28;19924;-77
2023/05/24 14:11:51;;;;;;;;;;;15.50;95.00;;;;;;5076823;28;19928;-78
2023/05/24 14:14:16;;;;;;;;;;;15.50;95.20;;;;;;5098237;28;19950;-77
2023/05/24 14:16:42;;;;;;;;;;;15.50;95.70;;;;;;5081693;28;20523;-78